Time,TemperatureF,DewpointF,PressureIn,WindDirection,WindDirectionDegrees,WindSpeedMPH,WindSpeedGustMPH,Humidity,HourlyPrecipIn,Conditions,Clouds,dailyrainin,SoftwareType,DateUTC
2013-01-30 00:03:00,64.3,63.7,29.71,South,180,6.0,16.0,98,0.00,,,0.00,Weather View 32 v70,2013-01-30 05:03:00,
2013-01-30 00:08:00,64.3,63.7,29.71,South,180,6.0,16.0,98,0.00,,,0.00,Weather View 32 v70,2013-01-30 05:08:00,
2013-01-30 00:13:00,64.3,63.7,29.71,SSW,202,5.0,16.0,98,0.00,,,0.00,Weather View 32 v70,2013-01-30 05:13:00,
2013-01-30 00:18:00,64.3,63.7,29.71,SSW,202,6.0,16.0,98,0.00,,,0.00,Weather View 32 v70,2013-01-30 05:18:00,
2013-01-30 00:23:00,64.2,63.6,29.71,South,180,6.0,16.0,98,0.00,,,0.00,Weather View 32 v70,2013-01-30 05:23:00,
2013-01-30 00:28:00,64.0,63.4,29.71,SSE,157,4.0,16.0,98,0.00,,,0.00,Weather View 32 v70,2013-01-30 05:28:00,
2013-01-30 00:33:00,63.9,63.3,29.70,South,180,4.0,16.0,98,0.00,,,0.00,Weather View 32 v70,2013-01-30 05:33:00,
2013-01-30 00:38:00,63.9,63.3,29.70,South,180,5.0,16.0,98,0.00,,,0.00,Weather View 32 v70,2013-01-30 05:38:00,
2013-01-30 00:43:00,63.9,63.3,29.70,SSW,202,5.0,16.0,98,0.00,,,0.00,Weather View 32 v70,2013-01-30 05:43:00,
2013-01-30 00:48:00,63.8,63.2,29.70,South,180,9.0,16.0,98,0.00,,,0.00,Weather View 32 v70,2013-01-30 05:48:00,
2013-01-30 00:53:00,63.9,63.3,29.69,SSW,202,5.0,12.0,98,0.00,,,0.00,Weather View 32 v70,2013-01-30 05:53:00,
2013-01-30 00:58:00,63.8,63.2,29.69,South,180,6.0,12.0,98,0.00,,,0.00,Weather View 32 v70,2013-01-30 05:58:00,
2013-01-30 01:03:00,63.7,63.1,29.69,South,180,4.0,12.0,98,0.00,,,0.00,Weather View 32 v70,2013-01-30 06:03:00,
2013-01-30 01:08:00,63.7,63.1,29.69,South,180,7.0,12.0,98,0.00,,,0.00,Weather View 32 v70,2013-01-30 06:08:00,
2013-01-30 01:13:00,63.6,63.0,29.69,South,180,5.0,12.0,98,0.00,,,0.00,Weather View 32 v70,2013-01-30 06:13:00,
2013-01-30 01:18:00,63.6,63.0,29.68,SSE,157,4.0,12.0,98,0.00,,,0.00,Weather View 32 v70,2013-01-30 06:18:00,
2013-01-30 01:23:00,63.7,63.1,29.69,SSW,202,2.0,12.0,98,0.00,,,0.00,Weather View 32 v70,2013-01-30 06:23:00,
2013-01-30 01:28:00,63.6,63.0,29.68,South,180,8.0,12.0,98,0.00,,,0.00,Weather View 32 v70,2013-01-30 06:28:00,
2013-01-30 01:33:00,63.7,63.1,29.68,South,180,6.0,12.0,98,0.00,,,0.00,Weather View 32 v70,2013-01-30 06:33:00,
2013-01-30 01:38:00,63.7,63.1,29.68,South,180,2.0,12.0,98,0.00,,,0.00,Weather View 32 v70,2013-01-30 06:38:00,
2013-01-30 01:43:00,63.7,63.1,29.68,South,180,4.0,12.0,98,0.00,,,0.00,Weather View 32 v70,2013-01-30 06:43:00,
2013-01-30 01:49:00,63.9,63.3,29.67,South,180,4.0,12.0,98,0.00,,,0.00,Weather View 32 v70,2013-01-30 06:49:00,
2013-01-30 01:54:00,63.9,63.3,29.67,South,180,6.0,12.0,98,0.00,,,0.00,Weather View 32 v70,2013-01-30 06:54:00,
2013-01-30 01:59:00,63.9,63.3,29.67,SSW,202,6.0,12.0,98,0.00,,,0.00,Weather View 32 v70,2013-01-30 06:59:00,
2013-01-30 02:04:00,64.1,63.5,29.67,South,180,6.0,12.0,98,0.00,,,0.00,Weather View 32 v70,2013-01-30 07:04:00,
2013-01-30 02:09:00,64.2,63.6,29.67,SSW,202,7.0,12.0,98,0.00,,,0.00,Weather View 32 v70,2013-01-30 07:09:00,
2013-01-30 02:14:00,64.3,63.7,29.67,South,180,5.0,12.0,98,0.00,,,0.00,Weather View 32 v70,2013-01-30 07:14:00,
2013-01-30 02:19:00,64.4,63.8,29.67,SSW,202,4.0,12.0,98,0.00,,,0.00,Weather View 32 v70,2013-01-30 07:19:00,
2013-01-30 02:24:00,64.6,64.0,29.67,South,180,3.0,13.0,98,0.00,,,0.00,Weather View 32 v70,2013-01-30 07:24:00,
2013-01-30 02:29:00,64.7,64.1,29.67,SSW,202,6.0,13.0,98,0.00,,,0.00,Weather View 32 v70,2013-01-30 07:29:00,
2013-01-30 02:34:00,64.7,64.1,29.67,South,180,8.0,13.0,98,0.00,,,0.00,Weather View 32 v70,2013-01-30 07:34:00,
2013-01-30 02:39:00,64.9,64.3,29.67,South,180,6.0,13.0,98,0.00,,,0.00,Weather View 32 v70,2013-01-30 07:39:00,
2013-01-30 02:44:00,64.9,64.3,29.66,SW,225,3.0,13.0,98,0.00,,,0.00,Weather View 32 v70,2013-01-30 07:44:00,
2013-01-30 02:49:00,65.0,64.4,29.67,SSW,202,5.0,13.0,98,0.00,,,0.00,Weather View 32 v70,2013-01-30 07:49:00,
2013-01-30 02:54:00,65.1,64.5,29.66,SSW,202,4.0,13.0,98,0.00,,,0.00,Weather View 32 v70,2013-01-30 07:54:00,
2013-01-30 02:59:00,65.2,64.6,29.66,SSW,202,7.0,13.0,98,0.00,,,0.00,Weather View 32 v70,2013-01-30 07:59:00,
2013-01-30 03:04:00,65.3,64.7,29.66,SSW,202,9.0,13.0,98,0.00,,,0.00,Weather View 32 v70,2013-01-30 08:04:00,
2013-01-30 03:09:00,65.4,64.8,29.66,SSW,202,4.0,13.0,98,0.00,,,0.00,Weather View 32 v70,2013-01-30 08:09:00,
2013-01-30 03:14:00,65.6,65.0,29.65,SSW,202,11.0,14.0,98,0.00,,,0.00,Weather View 32 v70,2013-01-30 08:14:00,
2013-01-30 03:19:00,65.7,65.1,29.65,SW,225,6.0,14.0,98,0.00,,,0.00,Weather View 32 v70,2013-01-30 08:19:00,
2013-01-30 03:24:00,65.9,65.3,29.65,SSW,202,5.0,16.0,98,0.00,,,0.00,Weather View 32 v70,2013-01-30 08:24:00,
2013-01-30 03:29:00,66.1,65.8,29.65,South,180,7.0,16.0,99,0.00,,,0.00,Weather View 32 v70,2013-01-30 08:29:00,
2013-01-30 03:34:00,66.3,66.0,29.65,SW,225,11.0,17.0,99,0.00,,,0.00,Weather View 32 v70,2013-01-30 08:34:00,
2013-01-30 03:39:00,66.6,66.3,29.65,SSW,202,11.0,19.0,99,0.00,,,0.00,Weather View 32 v70,2013-01-30 08:39:00,
2013-01-30 03:44:00,66.7,66.4,29.64,SW,225,9.0,19.0,99,0.00,,,0.00,Weather View 32 v70,2013-01-30 08:44:00,
2013-01-30 03:49:00,66.8,66.5,29.64,SSW,202,11.0,19.0,99,0.00,,,0.00,Weather View 32 v70,2013-01-30 08:49:00,
2013-01-30 03:54:00,66.8,66.5,29.64,SSW,202,14.0,21.0,99,0.00,,,0.00,Weather View 32 v70,2013-01-30 08:54:00,
2013-01-30 03:59:00,66.9,66.6,29.63,SSW,202,9.0,21.0,99,0.00,,,0.00,Weather View 32 v70,2013-01-30 08:59:00,
2013-01-30 04:04:00,67.1,66.8,29.63,SW,225,15.0,21.0,99,0.00,,,0.00,Weather View 32 v70,2013-01-30 09:04:00,
2013-01-30 04:09:00,67.1,66.8,29.63,WSW,247,18.0,21.0,99,0.00,,,0.00,Weather View 32 v70,2013-01-30 09:09:00,
2013-01-30 04:14:00,67.1,66.8,29.64,SW,225,9.0,21.0,99,0.00,,,0.00,Weather View 32 v70,2013-01-30 09:14:00,
2013-01-30 04:19:00,67.1,66.8,29.63,South,180,7.0,21.0,99,0.00,,,0.00,Weather View 32 v70,2013-01-30 09:19:00,
2013-01-30 04:24:00,67.2,66.9,29.63,SSW,202,10.0,21.0,99,0.00,,,0.00,Weather View 32 v70,2013-01-30 09:24:00,
2013-01-30 04:29:00,67.2,66.9,29.63,SW,225,12.0,21.0,99,0.00,,,0.00,Weather View 32 v70,2013-01-30 09:29:00,
2013-01-30 04:34:00,67.2,66.9,29.63,SSW,202,7.0,21.0,99,0.00,,,0.00,Weather View 32 v70,2013-01-30 09:34:00,
2013-01-30 04:39:00,67.1,66.8,29.63,SSE,157,6.0,21.0,99,0.00,,,0.00,Weather View 32 v70,2013-01-30 09:39:00,
2013-01-30 04:44:00,67.2,66.9,29.62,South,180,7.0,21.0,99,0.00,,,0.00,Weather View 32 v70,2013-01-30 09:44:00,
2013-01-30 04:49:00,67.1,66.8,29.62,SW,225,9.0,21.0,99,0.00,,,0.00,Weather View 32 v70,2013-01-30 09:49:00,
2013-01-30 04:54:00,67.1,66.8,29.62,SSW,202,9.0,21.0,99,0.00,,,0.00,Weather View 32 v70,2013-01-30 09:54:00,
2013-01-30 04:59:00,67.1,66.8,29.62,South,180,9.0,21.0,99,0.00,,,0.00,Weather View 32 v70,2013-01-30 09:59:00,
2013-01-30 05:04:00,67.1,66.8,29.61,SSW,202,11.0,21.0,99,0.00,,,0.00,Weather View 32 v70,2013-01-30 10:04:00,
2013-01-30 05:09:00,67.2,66.9,29.61,SSW,202,8.0,21.0,99,0.00,,,0.00,Weather View 32 v70,2013-01-30 10:09:00,
2013-01-30 05:14:00,67.1,66.8,29.61,South,180,7.0,21.0,99,0.00,,,0.00,Weather View 32 v70,2013-01-30 10:14:00,
2013-01-30 05:19:00,67.2,66.9,29.61,SSW,202,15.0,21.0,99,0.00,,,0.00,Weather View 32 v70,2013-01-30 10:19:00,
2013-01-30 05:24:00,67.3,67.0,29.61,South,180,9.0,21.0,99,0.00,,,0.00,Weather View 32 v70,2013-01-30 10:24:00,
2013-01-30 05:29:00,67.3,67.0,29.60,South,180,11.0,21.0,99,0.00,,,0.00,Weather View 32 v70,2013-01-30 10:29:00,
2013-01-30 05:34:00,67.1,66.8,29.59,SW,225,19.0,21.0,99,0.00,,,0.00,Weather View 32 v70,2013-01-30 10:34:00,
2013-01-30 05:39:00,67.2,66.9,29.60,South,180,13.0,24.0,99,0.00,,,0.00,Weather View 32 v70,2013-01-30 10:39:00,
2013-01-30 05:44:00,67.2,66.9,29.59,SSW,202,11.0,24.0,99,0.00,,,0.00,Weather View 32 v70,2013-01-30 10:44:00,
2013-01-30 05:49:00,67.2,66.9,29.59,South,180,12.0,24.0,99,0.00,,,0.00,Weather View 32 v70,2013-01-30 10:49:00,
2013-01-30 05:54:00,67.1,66.8,29.59,South,180,6.0,24.0,99,0.00,,,0.00,Weather View 32 v70,2013-01-30 10:54:00,
2013-01-30 05:59:00,67.1,66.8,29.59,SSW,202,6.0,24.0,99,0.00,,,0.00,Weather View 32 v70,2013-01-30 10:59:00,
2013-01-30 06:04:00,67.2,66.9,29.59,SSW,202,9.0,24.0,99,0.00,,,0.00,Weather View 32 v70,2013-01-30 11:04:00,
2013-01-30 06:09:00,67.3,67.0,29.59,South,180,16.0,24.0,99,0.00,,,0.00,Weather View 32 v70,2013-01-30 11:09:00,
2013-01-30 06:14:00,67.4,67.1,29.59,SW,225,12.0,24.0,99,0.00,,,0.00,Weather View 32 v70,2013-01-30 11:14:00,
2013-01-30 06:19:00,67.4,67.1,29.58,South,180,17.0,24.0,99,0.00,,,0.00,Weather View 32 v70,2013-01-30 11:19:00,
2013-01-30 06:24:00,67.4,67.1,29.59,SSW,202,9.0,24.0,99,0.00,,,0.00,Weather View 32 v70,2013-01-30 11:24:00,
2013-01-30 06:29:00,67.5,67.2,29.59,South,180,12.0,24.0,99,0.00,,,0.00,Weather View 32 v70,2013-01-30 11:29:00,
2013-01-30 06:34:00,67.4,67.1,29.59,SSW,202,11.0,24.0,99,0.00,,,0.00,Weather View 32 v70,2013-01-30 11:34:00,
2013-01-30 06:39:00,67.6,67.3,29.59,SSW,202,7.0,24.0,99,0.00,,,0.00,Weather View 32 v70,2013-01-30 11:39:00,
2013-01-30 06:44:00,67.6,67.3,29.59,South,180,12.0,24.0,99,0.00,,,0.00,Weather View 32 v70,2013-01-30 11:44:00,
2013-01-30 06:49:00,67.6,67.3,29.59,SSW,202,9.0,24.0,99,0.00,,,0.00,Weather View 32 v70,2013-01-30 11:49:00,
2013-01-30 06:54:00,67.7,67.4,29.59,South,180,9.0,24.0,99,0.00,,,0.00,Weather View 32 v70,2013-01-30 11:54:00,
2013-01-30 06:59:00,67.8,67.5,29.59,South,180,14.0,24.0,99,0.00,,,0.00,Weather View 32 v70,2013-01-30 11:59:00,
2013-01-30 07:04:00,67.9,67.6,29.59,SW,225,16.0,24.0,99,0.00,,,0.00,Weather View 32 v70,2013-01-30 12:04:00,
2013-01-30 07:10:00,67.9,67.6,29.59,SSE,157,6.0,24.0,99,0.00,,,0.00,Weather View 32 v70,2013-01-30 12:10:00,
2013-01-30 07:15:00,67.9,67.6,29.59,South,180,13.0,24.0,99,0.00,,,0.00,Weather View 32 v70,2013-01-30 12:15:00,
2013-01-30 07:20:00,67.9,67.6,29.59,SW,225,13.0,21.0,99,0.00,,,0.00,Weather View 32 v70,2013-01-30 12:20:00,
2013-01-30 07:25:00,67.9,67.6,29.59,SSW,202,11.0,21.0,99,0.00,,,0.00,Weather View 32 v70,2013-01-30 12:25:00,
2013-01-30 07:30:00,67.9,67.6,29.59,South,180,6.0,21.0,99,0.00,,,0.00,Weather View 32 v70,2013-01-30 12:30:00,
2013-01-30 07:35:00,67.9,67.6,29.59,South,180,11.0,21.0,99,0.00,,,0.00,Weather View 32 v70,2013-01-30 12:35:00,
2013-01-30 07:40:00,68.0,67.7,29.59,SSW,202,11.0,21.0,99,0.00,,,0.00,Weather View 32 v70,2013-01-30 12:40:00,
2013-01-30 07:45:00,68.1,67.8,29.59,SSW,202,14.0,21.0,99,0.00,,,0.00,Weather View 32 v70,2013-01-30 12:45:00,
2013-01-30 07:50:00,68.1,67.8,29.59,SSW,202,7.0,21.0,99,0.00,,,0.00,Weather View 32 v70,2013-01-30 12:50:00,
2013-01-30 07:55:00,68.1,67.8,29.59,SSW,202,8.0,21.0,99,0.00,,,0.00,Weather View 32 v70,2013-01-30 12:55:00,
2013-01-30 08:00:00,68.1,67.8,29.59,SW,225,9.0,21.0,99,0.00,,,0.00,Weather View 32 v70,2013-01-30 13:00:00,
2013-01-30 08:05:00,68.0,67.7,29.58,South,180,6.0,20.0,99,0.00,,,0.00,Weather View 32 v70,2013-01-30 13:05:00,
2013-01-30 08:10:00,68.0,67.7,29.58,South,180,8.0,19.0,99,0.00,,,0.00,Weather View 32 v70,2013-01-30 13:10:00,
2013-01-30 08:15:00,68.0,67.7,29.58,South,180,8.0,19.0,99,0.00,,,0.00,Weather View 32 v70,2013-01-30 13:15:00,
2013-01-30 08:20:00,68.0,67.7,29.58,South,180,5.0,19.0,99,0.00,,,0.00,Weather View 32 v70,2013-01-30 13:20:00,
2013-01-30 08:25:00,68.1,67.8,29.58,South,180,7.0,19.0,99,0.00,,,0.00,Weather View 32 v70,2013-01-30 13:25:00,
2013-01-30 08:30:00,68.2,67.9,29.57,SSE,157,6.0,23.0,99,0.00,,,0.00,Weather View 32 v70,2013-01-30 13:30:00,
2013-01-30 08:35:00,68.3,68.0,29.58,South,180,4.0,23.0,99,0.00,,,0.00,Weather View 32 v70,2013-01-30 13:35:00,
2013-01-30 08:40:00,68.4,68.1,29.57,SSW,202,9.0,23.0,99,0.00,,,0.00,Weather View 32 v70,2013-01-30 13:40:00,
2013-01-30 08:45:00,68.4,68.1,29.57,SW,225,7.0,23.0,99,0.00,,,0.00,Weather View 32 v70,2013-01-30 13:45:00,
2013-01-30 08:50:00,68.5,68.2,29.57,SSW,202,9.0,23.0,99,0.00,,,0.00,Weather View 32 v70,2013-01-30 13:50:00,
2013-01-30 08:55:00,68.6,68.3,29.57,South,180,9.0,23.0,99,0.00,,,0.00,Weather View 32 v70,2013-01-30 13:55:00,
2013-01-30 09:00:00,68.6,68.3,29.57,South,180,7.0,23.0,99,0.00,,,0.00,Weather View 32 v70,2013-01-30 14:00:00,
2013-01-30 09:05:00,68.7,68.4,29.57,South,180,11.0,23.0,99,0.00,,,0.00,Weather View 32 v70,2013-01-30 14:05:00,
2013-01-30 09:10:00,68.8,68.5,29.57,SSW,202,8.0,23.0,99,0.00,,,0.00,Weather View 32 v70,2013-01-30 14:10:00,
2013-01-30 09:15:00,68.9,68.6,29.57,South,180,7.0,23.0,99,0.00,,,0.00,Weather View 32 v70,2013-01-30 14:15:00,
2013-01-30 09:20:00,68.9,68.6,29.57,SSW,202,14.0,23.0,99,0.00,,,0.00,Weather View 32 v70,2013-01-30 14:20:00,
2013-01-30 09:25:00,68.9,68.6,29.57,South,180,7.0,23.0,99,0.00,,,0.00,Weather View 32 v70,2013-01-30 14:25:00,
2013-01-30 09:30:00,68.9,68.6,29.57,South,180,7.0,21.0,99,0.00,,,0.00,Weather View 32 v70,2013-01-30 14:30:00,
2013-01-30 09:35:00,69.2,68.9,29.56,South,180,11.0,21.0,99,0.00,,,0.00,Weather View 32 v70,2013-01-30 14:35:00,
2013-01-30 09:40:00,69.4,69.1,29.56,South,180,9.0,22.0,99,0.00,,,0.00,Weather View 32 v70,2013-01-30 14:40:00,
2013-01-30 09:45:00,69.5,69.2,29.56,South,180,8.0,22.0,99,0.00,,,0.00,Weather View 32 v70,2013-01-30 14:45:00,
2013-01-30 09:50:00,69.5,69.2,29.55,South,180,11.0,22.0,99,0.00,,,0.00,Weather View 32 v70,2013-01-30 14:50:00,
2013-01-30 09:55:00,69.6,69.3,29.55,South,180,11.0,22.0,99,0.00,,,0.00,Weather View 32 v70,2013-01-30 14:55:00,
2013-01-30 10:00:00,69.7,69.4,29.55,SSW,202,9.0,22.0,99,0.00,,,0.00,Weather View 32 v70,2013-01-30 15:00:00,
2013-01-30 10:05:00,69.9,69.6,29.56,South,180,6.0,22.0,99,0.00,,,0.00,Weather View 32 v70,2013-01-30 15:05:00,
2013-01-30 10:10:00,69.9,69.6,29.56,SSW,202,8.0,22.0,99,0.00,,,0.00,Weather View 32 v70,2013-01-30 15:10:00,
2013-01-30 10:15:00,69.9,69.6,29.55,South,180,7.0,22.0,99,0.00,,,0.00,Weather View 32 v70,2013-01-30 15:15:00,
2013-01-30 10:20:00,70.1,69.5,29.56,South,180,6.0,22.0,98,0.00,,,0.00,Weather View 32 v70,2013-01-30 15:20:00,
2013-01-30 10:25:00,70.3,69.4,29.57,SSW,202,6.0,24.0,97,0.00,,,0.00,Weather View 32 v70,2013-01-30 15:25:00,
2013-01-30 10:30:00,70.3,69.1,29.57,SW,225,12.0,24.0,96,0.00,,,0.00,Weather View 32 v70,2013-01-30 15:30:00,
2013-01-30 10:35:00,70.5,69.3,29.57,SW,225,6.0,24.0,96,0.00,,,0.00,Weather View 32 v70,2013-01-30 15:35:00,
2013-01-30 10:40:00,70.7,68.9,29.56,SW,225,15.0,24.0,94,0.00,,,0.00,Weather View 32 v70,2013-01-30 15:40:00,
2013-01-30 10:45:00,70.9,68.4,29.56,SSW,202,8.0,24.0,92,0.00,,,0.00,Weather View 32 v70,2013-01-30 15:45:00,
2013-01-30 10:50:00,71.3,67.9,29.55,SSE,157,12.0,24.0,89,0.00,,,0.00,Weather View 32 v70,2013-01-30 15:50:00,
2013-01-30 10:55:00,71.3,67.5,29.55,South,180,12.0,24.0,88,0.00,,,0.00,Weather View 32 v70,2013-01-30 15:55:00,
2013-01-30 11:00:00,71.6,67.5,29.54,SSW,202,10.0,24.0,87,0.00,,,0.00,Weather View 32 v70,2013-01-30 16:00:00,
2013-01-30 11:05:00,71.9,67.1,29.54,South,180,11.0,24.0,85,0.00,,,0.00,Weather View 32 v70,2013-01-30 16:05:00,
2013-01-30 11:11:00,72.1,66.6,29.54,SW,225,8.0,24.0,83,0.00,,,0.00,Weather View 32 v70,2013-01-30 16:11:00,
2013-01-30 11:16:00,72.3,66.5,29.54,South,180,6.0,24.0,82,0.00,,,0.00,Weather View 32 v70,2013-01-30 16:16:00,
2013-01-30 11:21:00,72.5,65.6,29.53,SW,225,8.0,24.0,79,0.00,,,0.00,Weather View 32 v70,2013-01-30 16:21:00,
2013-01-30 11:26:00,72.8,65.1,29.53,South,180,11.0,28.0,77,0.00,,,0.00,Weather View 32 v70,2013-01-30 16:26:00,
2013-01-30 11:31:00,73.1,64.7,29.53,South,180,17.0,28.0,75,0.00,,,0.00,Weather View 32 v70,2013-01-30 16:31:00,
2013-01-30 11:36:00,73.5,63.9,29.53,South,180,15.0,28.0,72,0.00,,,0.00,Weather View 32 v70,2013-01-30 16:36:00,
2013-01-30 11:41:00,73.7,63.7,29.52,South,180,11.0,28.0,71,0.00,,,0.00,Weather View 32 v70,2013-01-30 16:41:00,
2013-01-30 11:46:00,74.6,64.5,29.51,SSE,157,13.0,28.0,71,0.00,,,0.00,Weather View 32 v70,2013-01-30 16:46:00,
2013-01-30 11:51:00,74.5,63.6,29.51,SSW,202,16.0,28.0,69,0.00,,,0.00,Weather View 32 v70,2013-01-30 16:51:00,
2013-01-30 11:56:00,74.8,63.5,29.51,South,180,9.0,28.0,68,0.00,,,0.00,Weather View 32 v70,2013-01-30 16:56:00,
2013-01-30 12:01:00,75.3,63.1,29.51,South,180,8.0,28.0,66,0.00,,,0.00,Weather View 32 v70,2013-01-30 17:01:00,
2013-01-30 12:06:00,75.1,62.5,29.50,SSE,157,17.0,29.0,65,0.00,,,0.00,Weather View 32 v70,2013-01-30 17:06:00,
2013-01-30 12:11:00,75.2,62.6,29.49,South,180,19.0,29.0,65,0.00,,,0.00,Weather View 32 v70,2013-01-30 17:11:00,
2013-01-30 12:16:00,75.1,62.5,29.49,South,180,16.0,29.0,65,0.00,,,0.00,Weather View 32 v70,2013-01-30 17:16:00,
2013-01-30 12:21:00,75.2,62.1,29.48,SSW,202,22.0,34.0,64,0.00,,,0.00,Weather View 32 v70,2013-01-30 17:21:00,
2013-01-30 12:26:00,75.6,61.6,29.48,South,180,17.0,34.0,62,0.00,,,0.00,Weather View 32 v70,2013-01-30 17:26:00,
2013-01-30 12:31:00,75.6,61.2,29.47,SSW,202,9.0,34.0,61,0.00,,,0.00,Weather View 32 v70,2013-01-30 17:31:00,
2013-01-30 12:36:00,75.8,60.9,29.47,SSW,202,14.0,34.0,60,0.00,,,0.00,Weather View 32 v70,2013-01-30 17:36:00,
2013-01-30 12:41:00,75.6,60.7,29.47,SSW,202,24.0,34.0,60,0.00,,,0.00,Weather View 32 v70,2013-01-30 17:41:00,
2013-01-30 12:46:00,75.4,60.5,29.47,SSE,157,16.0,34.0,60,0.00,,,0.00,Weather View 32 v70,2013-01-30 17:46:00,
2013-01-30 12:51:00,76.3,60.9,29.47,SW,225,19.0,34.0,59,0.00,,,0.00,Weather View 32 v70,2013-01-30 17:51:00,
2013-01-30 12:56:00,76.0,60.6,29.46,South,180,16.0,34.0,59,0.00,,,0.00,Weather View 32 v70,2013-01-30 17:56:00,
2013-01-30 13:01:00,76.3,60.9,29.46,SSE,157,22.0,34.0,59,0.00,,,0.00,Weather View 32 v70,2013-01-30 18:01:00,
2013-01-30 13:06:00,76.6,61.1,29.46,South,180,11.0,34.0,59,0.00,,,0.00,Weather View 32 v70,2013-01-30 18:06:00,
2013-01-30 13:11:00,76.0,60.6,29.45,SSW,202,15.0,34.0,59,0.00,,,0.00,Weather View 32 v70,2013-01-30 18:11:00,
2013-01-30 13:16:00,77.1,61.6,29.44,SSE,157,13.0,34.0,59,0.00,,,0.00,Weather View 32 v70,2013-01-30 18:16:00,
2013-01-30 13:21:00,76.4,61.0,29.43,South,180,20.0,34.0,59,0.00,,,0.00,Weather View 32 v70,2013-01-30 18:21:00,
2013-01-30 13:26:00,76.2,61.2,29.43,South,180,21.0,32.0,60,0.00,,,0.00,Weather View 32 v70,2013-01-30 18:26:00,
2013-01-30 13:31:00,76.4,61.0,29.42,South,180,17.0,29.0,59,0.00,,,0.00,Weather View 32 v70,2013-01-30 18:31:00,
2013-01-30 13:36:00,76.5,61.1,29.42,SSE,157,16.0,29.0,59,0.00,,,0.00,Weather View 32 v70,2013-01-30 18:36:00,
2013-01-30 13:41:00,76.4,60.5,29.41,SE,135,12.0,29.0,58,0.00,,,0.00,Weather View 32 v70,2013-01-30 18:41:00,
2013-01-30 13:46:00,75.9,60.0,29.41,SW,225,9.0,29.0,58,0.00,,,0.00,Weather View 32 v70,2013-01-30 18:46:00,
2013-01-30 13:51:00,76.6,60.7,29.42,South,180,12.0,29.0,58,0.00,,,0.00,Weather View 32 v70,2013-01-30 18:51:00,
2013-01-30 13:56:00,76.8,60.9,29.40,South,180,22.0,30.0,58,0.00,,,0.00,Weather View 32 v70,2013-01-30 18:56:00,
2013-01-30 14:01:00,76.2,61.2,29.40,South,180,11.0,30.0,60,0.00,,,0.00,Weather View 32 v70,2013-01-30 19:01:00,
2013-01-30 14:06:00,76.4,61.4,29.40,SW,225,12.0,30.0,60,0.00,,,0.00,Weather View 32 v70,2013-01-30 19:06:00,
2013-01-30 14:11:00,76.6,61.1,29.40,South,180,9.0,30.0,59,0.00,,,0.00,Weather View 32 v70,2013-01-30 19:11:00,
2013-01-30 14:16:00,76.6,61.1,29.40,South,180,9.0,30.0,59,0.00,,,0.00,Weather View 32 v70,2013-01-30 19:16:00,
2013-01-30 14:21:00,76.5,61.5,29.39,South,180,8.0,30.0,60,0.00,,,0.00,Weather View 32 v70,2013-01-30 19:21:00,
2013-01-30 14:26:00,76.4,61.4,29.39,South,180,22.0,30.0,60,0.00,,,0.00,Weather View 32 v70,2013-01-30 19:26:00,
2013-01-30 14:31:00,76.8,61.3,29.39,South,180,12.0,30.0,59,0.00,,,0.00,Weather View 32 v70,2013-01-30 19:31:00,
2013-01-30 14:36:00,76.5,62.0,29.39,SSE,157,17.0,30.0,61,0.00,,,0.00,Weather View 32 v70,2013-01-30 19:36:00,
2013-01-30 14:41:00,76.5,62.0,29.38,South,180,19.0,30.0,61,0.00,,,0.00,Weather View 32 v70,2013-01-30 19:41:00,
2013-01-30 14:46:00,76.6,62.1,29.38,South,180,14.0,30.0,61,0.00,,,0.00,Weather View 32 v70,2013-01-30 19:46:00,
2013-01-30 14:51:00,76.7,61.7,29.38,South,180,16.0,30.0,60,0.00,,,0.00,Weather View 32 v70,2013-01-30 19:51:00,
2013-01-30 14:56:00,76.6,61.6,29.38,SSW,202,20.0,30.0,60,0.00,,,0.00,Weather View 32 v70,2013-01-30 19:56:00,
2013-01-30 15:01:00,76.4,61.4,29.37,South,180,12.0,30.0,60,0.00,,,0.00,Weather View 32 v70,2013-01-30 20:01:00,
2013-01-30 15:06:00,76.5,61.5,29.37,SE,135,11.0,30.0,60,0.00,,,0.00,Weather View 32 v70,2013-01-30 20:06:00,
2013-01-30 15:11:00,76.3,61.3,29.37,SSE,157,17.0,30.0,60,0.00,,,0.00,Weather View 32 v70,2013-01-30 20:11:00,
2013-01-30 15:16:00,76.2,61.2,29.36,SSE,157,21.0,29.0,60,0.00,,,0.00,Weather View 32 v70,2013-01-30 20:16:00,
2013-01-30 15:21:00,76.0,60.6,29.35,South,180,9.0,29.0,59,0.00,,,0.00,Weather View 32 v70,2013-01-30 20:21:00,
2013-01-30 15:26:00,76.3,61.3,29.36,SSE,157,16.0,29.0,60,0.00,,,0.00,Weather View 32 v70,2013-01-30 20:26:00,
2013-01-30 15:31:00,76.7,61.2,29.35,SSE,157,14.0,29.0,59,0.00,,,0.00,Weather View 32 v70,2013-01-30 20:31:00,
2013-01-30 15:36:00,76.2,61.2,29.35,South,180,18.0,29.0,60,0.00,,,0.00,Weather View 32 v70,2013-01-30 20:36:00,
2013-01-30 15:41:00,75.8,61.3,29.35,South,180,17.0,29.0,61,0.00,,,0.00,Weather View 32 v70,2013-01-30 20:41:00,
2013-01-30 15:46:00,75.9,61.4,29.34,South,180,11.0,29.0,61,0.00,,,0.00,Weather View 32 v70,2013-01-30 20:46:00,
2013-01-30 15:51:00,75.7,61.7,29.34,South,180,12.0,29.0,62,0.00,,,0.00,Weather View 32 v70,2013-01-30 20:51:00,
2013-01-30 15:56:00,75.7,61.7,29.34,SW,225,21.0,29.0,62,0.00,,,0.00,Weather View 32 v70,2013-01-30 20:56:00,
2013-01-30 16:01:00,74.7,62.1,29.34,SSE,157,10.0,28.0,65,0.00,,,0.00,Weather View 32 v70,2013-01-30 21:01:00,
2013-01-30 16:06:00,74.3,62.6,29.33,South,180,7.0,28.0,67,0.00,,,0.00,Weather View 32 v70,2013-01-30 21:06:00,
2013-01-30 16:11:00,74.9,62.7,29.33,South,180,11.0,28.0,66,0.00,,,0.00,Weather View 32 v70,2013-01-30 21:11:00,
2013-01-30 16:16:00,75.2,63.0,29.33,SW,225,8.0,28.0,66,0.00,,,0.00,Weather View 32 v70,2013-01-30 21:16:00,
2013-01-30 16:21:00,74.9,62.7,29.33,South,180,23.0,27.0,66,0.00,,,0.00,Weather View 32 v70,2013-01-30 21:21:00,
2013-01-30 16:26:00,74.7,62.5,29.33,South,180,13.0,27.0,66,0.00,,,0.00,Weather View 32 v70,2013-01-30 21:26:00,
2013-01-30 16:31:00,74.5,62.8,29.32,SSE,157,9.0,27.0,67,0.00,,,0.00,Weather View 32 v70,2013-01-30 21:31:00,
2013-01-30 16:36:00,74.2,62.5,29.32,South,180,11.0,27.0,67,0.00,,,0.00,Weather View 32 v70,2013-01-30 21:36:00,
2013-01-30 16:41:00,73.9,62.6,29.32,South,180,15.0,28.0,68,0.00,,,0.00,Weather View 32 v70,2013-01-30 21:41:00,
2013-01-30 16:47:00,73.6,62.8,29.32,SE,135,13.0,28.0,69,0.00,,,0.00,Weather View 32 v70,2013-01-30 21:47:00,
2013-01-30 16:52:00,73.5,62.7,29.32,SSW,202,13.0,28.0,69,0.00,,,0.00,Weather View 32 v70,2013-01-30 21:52:00,
2013-01-30 16:57:00,73.3,62.9,29.32,South,180,21.0,28.0,70,0.00,,,0.00,Weather View 32 v70,2013-01-30 21:57:00,
2013-01-30 17:02:00,73.1,63.1,29.32,South,180,11.0,28.0,71,0.00,,,0.00,Weather View 32 v70,2013-01-30 22:02:00,
2013-01-30 17:07:00,72.8,63.2,29.32,SSE,157,12.0,28.0,72,0.00,,,0.00,Weather View 32 v70,2013-01-30 22:07:00,
2013-01-30 17:12:00,72.6,63.0,29.32,South,180,6.0,28.0,72,0.00,,,0.00,Weather View 32 v70,2013-01-30 22:12:00,
2013-01-30 17:17:00,72.5,63.3,29.31,South,180,17.0,28.0,73,0.00,,,0.00,Weather View 32 v70,2013-01-30 22:17:00,
2013-01-30 17:22:00,72.3,63.5,29.31,South,180,11.0,28.0,74,0.00,,,0.00,Weather View 32 v70,2013-01-30 22:22:00,
2013-01-30 17:27:00,72.2,63.4,29.31,South,180,12.0,28.0,74,0.00,,,0.00,Weather View 32 v70,2013-01-30 22:27:00,
2013-01-30 17:32:00,71.9,63.5,29.30,South,180,9.0,28.0,75,0.00,,,0.00,Weather View 32 v70,2013-01-30 22:32:00,
2013-01-30 17:37:00,71.7,63.7,29.30,South,180,14.0,28.0,76,0.00,,,0.00,Weather View 32 v70,2013-01-30 22:37:00,
2013-01-30 17:42:00,71.6,63.6,29.29,South,180,10.0,28.0,76,0.00,,,0.00,Weather View 32 v70,2013-01-30 22:42:00,
2013-01-30 17:47:00,71.3,63.7,29.29,SSE,157,22.0,28.0,77,0.00,,,0.00,Weather View 32 v70,2013-01-30 22:47:00,
2013-01-30 17:52:00,71.3,63.7,29.29,South,180,11.0,28.0,77,0.00,,,0.00,Weather View 32 v70,2013-01-30 22:52:00,
2013-01-30 17:57:00,71.1,63.9,29.29,South,180,14.0,31.0,78,0.00,,,0.00,Weather View 32 v70,2013-01-30 22:57:00,
2013-01-30 18:02:00,70.9,64.0,29.29,SSE,157,17.0,31.0,79,0.00,,,0.00,Weather View 32 v70,2013-01-30 23:02:00,
2013-01-30 18:07:00,70.9,64.0,29.29,SSW,202,12.0,31.0,79,0.00,,,0.00,Weather View 32 v70,2013-01-30 23:07:00,
2013-01-30 18:12:00,70.7,63.8,29.29,SSW,202,9.0,31.0,79,0.00,,,0.00,Weather View 32 v70,2013-01-30 23:12:00,
2013-01-30 18:17:00,70.6,64.1,29.28,SSW,202,5.0,31.0,80,0.00,,,0.00,Weather View 32 v70,2013-01-30 23:17:00,
2013-01-30 18:22:00,70.4,63.9,29.28,South,180,14.0,31.0,80,0.00,,,0.00,Weather View 32 v70,2013-01-30 23:22:00,
2013-01-30 18:27:00,70.2,64.1,29.27,South,180,14.0,31.0,81,0.00,,,0.00,Weather View 32 v70,2013-01-30 23:27:00,
2013-01-30 18:32:00,70.1,64.0,29.26,SSW,202,16.0,31.0,81,0.00,,,0.00,Weather View 32 v70,2013-01-30 23:32:00,
2013-01-30 18:37:00,69.9,64.1,29.27,South,180,11.0,31.0,82,0.00,,,0.00,Weather View 32 v70,2013-01-30 23:37:00,
2013-01-30 18:42:00,70.0,64.2,29.26,SSE,157,9.0,31.0,82,0.00,,,0.00,Weather View 32 v70,2013-01-30 23:42:00,
2013-01-30 18:47:00,69.9,64.1,29.26,SSE,157,9.0,31.0,82,0.00,,,0.00,Weather View 32 v70,2013-01-30 23:47:00,
2013-01-30 18:52:00,69.8,64.0,29.26,South,180,21.0,31.0,82,0.00,,,0.00,Weather View 32 v70,2013-01-30 23:52:00,
2013-01-30 18:57:00,69.7,63.9,29.26,South,180,11.0,25.0,82,0.00,,,0.00,Weather View 32 v70,2013-01-30 23:57:00,
2013-01-30 19:02:00,69.8,64.0,29.26,SSE,157,11.0,26.0,82,0.00,,,0.00,Weather View 32 v70,2013-01-31 00:02:00,
2013-01-30 19:07:00,69.6,64.2,29.26,SSW,202,11.0,31.0,83,0.00,,,0.00,Weather View 32 v70,2013-01-31 00:07:00,
2013-01-30 19:12:00,69.6,64.2,29.26,South,180,12.0,31.0,83,0.00,,,0.00,Weather View 32 v70,2013-01-31 00:12:00,
2013-01-30 19:18:00,69.5,64.4,29.26,South,180,7.0,31.0,84,0.00,,,0.00,Weather View 32 v70,2013-01-31 00:18:00,
2013-01-30 19:23:00,69.6,64.5,29.25,South,180,12.0,31.0,84,0.00,,,0.00,Weather View 32 v70,2013-01-31 00:23:00,
2013-01-30 19:28:00,69.6,64.5,29.25,South,180,9.0,31.0,84,0.00,,,0.00,Weather View 32 v70,2013-01-31 00:28:00,
2013-01-30 19:33:00,69.6,64.5,29.25,SSE,157,15.0,31.0,84,0.00,,,0.00,Weather View 32 v70,2013-01-31 00:33:00,
2013-01-30 19:38:00,69.7,64.6,29.24,South,180,15.0,31.0,84,0.00,,,0.00,Weather View 32 v70,2013-01-31 00:38:00,
2013-01-30 19:43:00,69.6,64.9,29.25,South,180,8.0,31.0,85,0.00,,,0.00,Weather View 32 v70,2013-01-31 00:43:00,
2013-01-30 19:48:00,69.7,65.0,29.25,South,180,22.0,31.0,85,0.00,,,0.00,Weather View 32 v70,2013-01-31 00:48:00,
2013-01-30 19:53:00,69.7,65.0,29.24,South,180,12.0,31.0,85,0.00,,,0.00,Weather View 32 v70,2013-01-31 00:53:00,
2013-01-30 19:58:00,69.7,65.0,29.24,SSE,157,21.0,31.0,85,0.00,,,0.00,Weather View 32 v70,2013-01-31 00:58:00,
2013-01-30 20:03:00,69.8,65.1,29.24,South,180,12.0,31.0,85,0.00,,,0.00,Weather View 32 v70,2013-01-31 01:03:00,
2013-01-30 20:08:00,69.6,64.9,29.23,SSW,202,11.0,30.0,85,0.00,,,0.00,Weather View 32 v70,2013-01-31 01:08:00,
2013-01-30 20:13:00,69.7,65.0,29.23,South,180,13.0,30.0,85,0.00,,,0.00,Weather View 32 v70,2013-01-31 01:13:00,
2013-01-30 20:18:00,69.8,65.1,29.23,SSE,157,17.0,30.0,85,0.00,,,0.00,Weather View 32 v70,2013-01-31 01:18:00,
2013-01-30 20:23:00,69.9,64.8,29.23,South,180,11.0,30.0,84,0.00,,,0.00,Weather View 32 v70,2013-01-31 01:23:00,
2013-01-30 20:28:00,70.0,64.9,29.23,SSE,157,11.0,30.0,84,0.00,,,0.00,Weather View 32 v70,2013-01-31 01:28:00,
2013-01-30 20:33:00,70.1,65.0,29.22,South,180,17.0,30.0,84,0.00,,,0.00,Weather View 32 v70,2013-01-31 01:33:00,
2013-01-30 20:38:00,70.1,65.0,29.22,SSE,157,15.0,30.0,84,0.00,,,0.00,Weather View 32 v70,2013-01-31 01:38:00,
2013-01-30 20:43:00,70.1,65.0,29.22,South,180,19.0,30.0,84,0.00,,,0.00,Weather View 32 v70,2013-01-31 01:43:00,
2013-01-30 20:48:00,70.2,64.8,29.21,SSE,157,13.0,30.0,83,0.00,,,0.00,Weather View 32 v70,2013-01-31 01:48:00,
2013-01-30 20:53:00,70.4,65.0,29.21,South,180,14.0,30.0,83,0.00,,,0.00,Weather View 32 v70,2013-01-31 01:53:00,
2013-01-30 20:58:00,70.4,64.6,29.21,South,180,10.0,30.0,82,0.00,,,0.00,Weather View 32 v70,2013-01-31 01:58:00,
2013-01-30 21:03:00,70.6,64.8,29.20,South,180,17.0,29.0,82,0.00,,,0.00,Weather View 32 v70,2013-01-31 02:03:00,
2013-01-30 21:08:00,70.9,64.8,29.20,South,180,12.0,29.0,81,0.00,,,0.00,Weather View 32 v70,2013-01-31 02:08:00,
2013-01-30 21:13:00,70.9,64.4,29.20,South,180,21.0,34.0,80,0.00,,,0.00,Weather View 32 v70,2013-01-31 02:13:00,
2013-01-30 21:18:00,71.1,64.2,29.20,SSW,202,12.0,34.0,79,0.00,,,0.00,Weather View 32 v70,2013-01-31 02:18:00,
2013-01-30 21:23:00,71.3,64.4,29.20,SSE,157,18.0,34.0,79,0.00,,,0.00,Weather View 32 v70,2013-01-31 02:23:00,
2013-01-30 21:28:00,71.0,64.5,29.18,SSW,202,24.0,34.0,80,0.00,,,0.00,Weather View 32 v70,2013-01-31 02:28:00,
2013-01-30 21:33:00,70.6,65.2,29.19,SSW,202,12.0,34.0,83,0.00,,,0.00,Weather View 32 v70,2013-01-31 02:33:00,
2013-01-30 21:38:00,70.2,66.1,29.26,WNW,292,19.0,34.0,87,0.00,,,0.00,Weather View 32 v70,2013-01-31 02:38:00,
2013-01-30 21:43:00,65.7,65.1,29.27,West,270,17.0,34.0,98,0.02,,,0.03,Weather View 32 v70,2013-01-31 02:43:00,
2013-01-30 21:48:00,64.6,64.0,29.27,WNW,292,12.0,34.0,98,0.05,,,0.06,Weather View 32 v70,2013-01-31 02:48:00,
2013-01-30 21:53:00,64.1,63.5,29.28,WNW,292,8.0,34.0,98,0.08,,,0.08,Weather View 32 v70,2013-01-31 02:53:00,
2013-01-30 21:59:00,63.9,63.3,29.29,WNW,292,12.0,34.0,98,0.00,,,0.11,Weather View 32 v70,2013-01-31 02:59:00,
2013-01-30 22:04:00,62.9,62.3,29.27,NW,315,22.0,36.0,98,0.14,,,0.14,Weather View 32 v70,2013-01-31 03:04:00,
2013-01-30 22:09:00,61.9,61.3,29.28,West,270,14.0,36.0,98,0.16,,,0.16,Weather View 32 v70,2013-01-31 03:09:00,
2013-01-30 22:14:00,60.9,60.3,29.29,WNW,292,17.0,36.0,98,0.18,,,0.18,Weather View 32 v70,2013-01-31 03:14:00,
2013-01-30 22:19:00,60.2,59.6,29.31,WSW,247,16.0,36.0,98,0.20,,,0.20,Weather View 32 v70,2013-01-31 03:19:00,
2013-01-30 22:24:00,59.1,58.5,29.31,WNW,292,21.0,36.0,98,0.22,,,0.22,Weather View 32 v70,2013-01-31 03:24:00,
2013-01-30 22:29:00,58.4,57.8,29.30,West,270,8.0,36.0,98,0.24,,,0.24,Weather View 32 v70,2013-01-31 03:29:00,
2013-01-30 22:34:00,57.9,57.1,29.32,WNW,292,14.0,36.0,97,0.26,,,0.26,Weather View 32 v70,2013-01-31 03:34:00,
2013-01-30 22:39:00,57.6,56.8,29.32,West,270,13.0,36.0,97,0.28,,,0.28,Weather View 32 v70,2013-01-31 03:39:00,
2013-01-30 22:44:00,56.9,56.1,29.32,West,270,13.0,36.0,97,0.27,,,0.30,Weather View 32 v70,2013-01-31 03:44:00,
2013-01-30 22:49:00,56.8,56.0,29.32,West,270,9.0,36.0,97,0.26,,,0.32,Weather View 32 v70,2013-01-31 03:49:00,
2013-01-30 22:54:00,56.7,55.9,29.31,West,270,11.0,36.0,97,0.26,,,0.34,Weather View 32 v70,2013-01-31 03:54:00,
2013-01-30 22:59:00,56.5,55.7,29.32,West,270,7.0,36.0,97,0.24,,,0.35,Weather View 32 v70,2013-01-31 03:59:00,
2013-01-30 23:04:00,56.3,55.5,29.33,WNW,292,11.0,36.0,97,0.23,,,0.38,Weather View 32 v70,2013-01-31 04:04:00,
2013-01-30 23:09:00,55.9,55.1,29.34,WNW,292,8.0,33.0,97,0.25,,,0.41,Weather View 32 v70,2013-01-31 04:09:00,
2013-01-30 23:14:00,54.9,54.1,29.33,West,270,21.0,33.0,97,0.26,,,0.44,Weather View 32 v70,2013-01-31 04:14:00,
2013-01-30 23:19:00,53.9,53.1,29.34,West,270,11.0,33.0,97,0.27,,,0.47,Weather View 32 v70,2013-01-31 04:19:00,
2013-01-30 23:24:00,53.4,52.6,29.34,West,270,14.0,27.0,97,0.27,,,0.50,Weather View 32 v70,2013-01-31 04:24:00,
2013-01-30 23:29:00,53.0,52.2,29.33,West,270,9.0,27.0,97,0.27,,,0.51,Weather View 32 v70,2013-01-31 04:29:00,
2013-01-30 23:34:00,52.9,52.1,29.33,WSW,247,11.0,27.0,97,0.27,,,0.54,Weather View 32 v70,2013-01-31 04:34:00,
2013-01-30 23:39:00,52.6,51.8,29.33,WNW,292,10.0,27.0,97,0.28,,,0.56,Weather View 32 v70,2013-01-31 04:39:00,
2013-01-30 23:44:00,52.4,51.6,29.34,SW,225,11.0,27.0,97,0.28,,,0.58,Weather View 32 v70,2013-01-31 04:44:00,
2013-01-30 23:49:00,52.1,51.3,29.34,WSW,247,5.0,27.0,97,0.27,,,0.59,Weather View 32 v70,2013-01-31 04:49:00,
2013-01-30 23:54:00,51.8,51.0,29.34,WSW,247,4.0,27.0,97,0.26,,,0.60,Weather View 32 v70,2013-01-31 04:54:00,
2013-01-30 23:59:00,51.6,50.8,29.34,WSW,247,9.0,27.0,97,0.26,,,0.61,Weather View 32 v70,2013-01-31 04:59:00,